sensor_id;sensor_type;location;lat;lon;timestamp;temperature;humidity
35894;DHT22;21994;48.204;16.516;2022-08-07T00:01:59;18.50;99.90
35894;DHT22;21994;48.204;16.516;2022-08-07T00:04:25;18.50;99.90
35894;DHT22;21994;48.204;16.516;2022-08-07T00:06:51;18.40;99.90
35894;DHT22;21994;48.204;16.516;2022-08-07T00:09:17;18.40;99.90
35894;DHT22;21994;48.204;16.516;2022-08-07T00:11:46;18.50;99.90
35894;DHT22;21994;48.204;16.516;2022-08-07T00:14:12;18.50;99.90
35894;DHT22;21994;48.204;16.516;2022-08-07T00:16:38;18.50;99.90
35894;DHT22;21994;48.204;16.516;2022-08-07T00:19:04;18.50;99.90
35894;DHT22;21994;48.204;16.516;2022-08-07T00:21:30;18.50;99.90
35894;DHT22;21994;48.204;16.516;2022-08-07T00:23:56;18.50;99.90
35894;DHT22;21994;48.204;16.516;2022-08-07T00:26:22;18.50;99.90
35894;DHT22;21994;48.204;16.516;2022-08-07T00:28:47;18.40;99.90
35894;DHT22;21994;48.204;16.516;2022-08-07T00:31:13;18.40;99.90
35894;DHT22;21994;48.204;16.516;2022-08-07T00:33:39;18.40;99.90
35894;DHT22;21994;48.204;16.516;2022-08-07T00:36:07;18.40;99.90
35894;DHT22;21994;48.204;16.516;2022-08-07T00:38:33;18.40;99.90
35894;DHT22;21994;48.204;16.516;2022-08-07T00:41:02;18.40;99.90
35894;DHT22;21994;48.204;16.516;2022-08-07T00:43:29;18.50;99.90
35894;DHT22;21994;48.204;16.516;2022-08-07T00:45:55;18.40;99.90
35894;DHT22;21994;48.204;16.516;2022-08-07T00:48:21;18.50;99.90
35894;DHT22;21994;48.204;16.516;2022-08-07T00:50:47;18.40;99.90
35894;DHT22;21994;48.204;16.516;2022-08-07T00:53:13;18.40;99.90
35894;DHT22;21994;48.204;16.516;2022-08-07T00:55:39;18.30;99.90
35894;DHT22;21994;48.204;16.516;2022-08-07T00:58:05;18.40;99.90
35894;DHT22;21994;48.204;16.516;2022-08-07T01:00:31;18.40;99.90
35894;DHT22;21994;48.204;16.516;2022-08-07T01:02:57;18.50;99.90
35894;DHT22;21994;48.204;16.516;2022-08-07T01:05:24;18.40;99.90
35894;DHT22;21994;48.204;16.516;2022-08-07T01:07:52;18.40;99.90
35894;DHT22;21994;48.204;16.516;2022-08-07T01:10:18;18.40;99.90
35894;DHT22;21994;48.204;16.516;2022-08-07T01:12:44;18.30;99.90
35894;DHT22;21994;48.204;16.516;2022-08-07T01:15:10;18.30;99.90
35894;DHT22;21994;48.204;16.516;2022-08-07T01:17:36;18.40;99.90
35894;DHT22;21994;48.204;16.516;2022-08-07T01:20:08;18.30;99.90
35894;DHT22;21994;48.204;16.516;2022-08-07T01:22:39;18.30;99.90
35894;DHT22;21994;48.204;16.516;2022-08-07T01:25:07;18.30;99.90
35894;DHT22;21994;48.204;16.516;2022-08-07T01:27:37;18.30;99.90
35894;DHT22;21994;48.204;16.516;2022-08-07T01:30:03;18.20;99.90
35894;DHT22;21994;48.204;16.516;2022-08-07T01:32:30;18.20;99.90
35894;DHT22;21994;48.204;16.516;2022-08-07T01:34:56;18.20;99.90
35894;DHT22;21994;48.204;16.516;2022-08-07T01:37:22;18.10;99.90
35894;DHT22;21994;48.204;16.516;2022-08-07T01:39:48;18.20;99.90
35894;DHT22;21994;48.204;16.516;2022-08-07T01:42:15;18.20;99.90
35894;DHT22;21994;48.204;16.516;2022-08-07T01:44:42;18.10;99.90
35894;DHT22;21994;48.204;16.516;2022-08-07T01:47:08;18.10;99.90
35894;DHT22;21994;48.204;16.516;2022-08-07T01:49:35;18.10;99.90
35894;DHT22;21994;48.204;16.516;2022-08-07T01:52:03;18.10;99.90
35894;DHT22;21994;48.204;16.516;2022-08-07T01:54:36;18.00;99.90
35894;DHT22;21994;48.204;16.516;2022-08-07T01:57:09;18.00;99.90
35894;DHT22;21994;48.204;16.516;2022-08-07T01:59:45;18.10;99.90
35894;DHT22;21994;48.204;16.516;2022-08-07T02:02:20;17.90;99.90
35894;DHT22;21994;48.204;16.516;2022-08-07T02:04:53;17.90;99.90
35894;DHT22;21994;48.204;16.516;2022-08-07T02:07:25;18.00;99.90
35894;DHT22;21994;48.204;16.516;2022-08-07T02:09:53;17.90;99.90
35894;DHT22;21994;48.204;16.516;2022-08-07T02:12:21;17.90;99.90
35894;DHT22;21994;48.204;16.516;2022-08-07T02:14:52;17.90;99.90
35894;DHT22;21994;48.204;16.516;2022-08-07T02:17:20;17.80;99.90
35894;DHT22;21994;48.204;16.516;2022-08-07T02:19:48;17.90;99.90
35894;DHT22;21994;48.204;16.516;2022-08-07T02:22:16;18.00;99.90
35894;DHT22;21994;48.204;16.516;2022-08-07T02:24:45;18.00;99.90
35894;DHT22;21994;48.204;16.516;2022-08-07T02:27:15;18.00;99.90
35894;DHT22;21994;48.204;16.516;2022-08-07T02:29:43;17.90;99.90
35894;DHT22;21994;48.204;16.516;2022-08-07T02:32:11;17.90;99.90
35894;DHT22;21994;48.204;16.516;2022-08-07T02:34:39;17.90;99.90
35894;DHT22;21994;48.204;16.516;2022-08-07T02:37:06;17.90;99.90
35894;DHT22;21994;48.204;16.516;2022-08-07T02:39:35;17.70;99.90
35894;DHT22;21994;48.204;16.516;2022-08-07T02:42:07;17.90;99.90
35894;DHT22;21994;48.204;16.516;2022-08-07T02:44:34;17.80;99.90
35894;DHT22;21994;48.204;16.516;2022-08-07T02:47:02;17.90;99.90
35894;DHT22;21994;48.204;16.516;2022-08-07T02:49:28;17.90;99.90
35894;DHT22;21994;48.204;16.516;2022-08-07T02:51:56;17.90;99.90
35894;DHT22;21994;48.204;16.516;2022-08-07T02:54:26;17.80;99.90
35894;DHT22;21994;48.204;16.516;2022-08-07T02:56:55;17.80;99.90
35894;DHT22;21994;48.204;16.516;2022-08-07T02:59:26;17.80;99.90
35894;DHT22;21994;48.204;16.516;2022-08-07T03:01:54;17.80;99.90
35894;DHT22;21994;48.204;16.516;2022-08-07T03:04:22;17.80;99.90
35894;DHT22;21994;48.204;16.516;2022-08-07T03:06:49;17.70;99.90
35894;DHT22;21994;48.204;16.516;2022-08-07T03:09:17;17.80;99.90
35894;DHT22;21994;48.204;16.516;2022-08-07T03:11:46;17.80;99.90
35894;DHT22;21994;48.204;16.516;2022-08-07T03:14:12;17.80;99.90
35894;DHT22;21994;48.204;16.516;2022-08-07T03:16:39;17.80;99.90
35894;DHT22;21994;48.204;16.516;2022-08-07T03:19:07;17.90;99.90
35894;DHT22;21994;48.204;16.516;2022-08-07T03:21:34;17.90;99.90
35894;DHT22;21994;48.204;16.516;2022-08-07T03:24:00;17.80;99.90
35894;DHT22;21994;48.204;16.516;2022-08-07T03:26:31;17.80;99.90
35894;DHT22;21994;48.204;16.516;2022-08-07T03:29:00;17.70;99.90
35894;DHT22;21994;48.204;16.516;2022-08-07T03:31:27;17.80;99.90
35894;DHT22;21994;48.204;16.516;2022-08-07T03:33:58;17.70;99.90
35894;DHT22;21994;48.204;16.516;2022-08-07T03:36:26;17.70;99.90
35894;DHT22;21994;48.204;16.516;2022-08-07T03:39:06;17.70;99.90
35894;DHT22;21994;48.204;16.516;2022-08-07T03:41:34;17.90;99.90
35894;DHT22;21994;48.204;16.516;2022-08-07T03:44:00;17.80;99.90
35894;DHT22;21994;48.204;16.516;2022-08-07T03:46:27;17.90;99.90
35894;DHT22;21994;48.204;16.516;2022-08-07T03:48:54;17.80;99.90
35894;DHT22;21994;48.204;16.516;2022-08-07T03:51:20;17.80;99.90
35894;DHT22;21994;48.204;16.516;2022-08-07T03:53:47;17.80;99.90
35894;DHT22;21994;48.204;16.516;2022-08-07T03:56:17;17.80;99.90
35894;DHT22;21994;48.204;16.516;2022-08-07T03:58:45;17.80;99.90
35894;DHT22;21994;48.204;16.516;2022-08-07T04:01:12;17.80;99.90
35894;DHT22;21994;48.204;16.516;2022-08-07T04:03:39;17.80;99.90
35894;DHT22;21994;48.204;16.516;2022-08-07T04:06:09;17.80;99.90
35894;DHT22;21994;48.204;16.516;2022-08-07T04:08:36;17.80;99.90
35894;DHT22;21994;48.204;16.516;2022-08-07T04:11:05;17.80;99.90
35894;DHT22;21994;48.204;16.516;2022-08-07T04:13:33;17.80;99.90
35894;DHT22;21994;48.204;16.516;2022-08-07T04:15:59;17.80;99.90
35894;DHT22;21994;48.204;16.516;2022-08-07T04:18:25;17.70;99.90
35894;DHT22;21994;48.204;16.516;2022-08-07T04:20:51;17.70;99.90
35894;DHT22;21994;48.204;16.516;2022-08-07T04:23:17;17.70;99.90
35894;DHT22;21994;48.204;16.516;2022-08-07T04:25:44;17.90;99.90
35894;DHT22;21994;48.204;16.516;2022-08-07T04:28:10;17.90;99.90
35894;DHT22;21994;48.204;16.516;2022-08-07T04:30:37;17.90;99.90
35894;DHT22;21994;48.204;16.516;2022-08-07T04:33:08;17.90;99.90
35894;DHT22;21994;48.204;16.516;2022-08-07T04:35:38;17.80;99.90
35894;DHT22;21994;48.204;16.516;2022-08-07T04:38:08;17.80;99.90
35894;DHT22;21994;48.204;16.516;2022-08-07T04:40:38;17.80;99.90
35894;DHT22;21994;48.204;16.516;2022-08-07T04:43:06;17.80;99.90
35894;DHT22;21994;48.204;16.516;2022-08-07T04:46:09;17.70;99.90
35894;DHT22;21994;48.204;16.516;2022-08-07T04:51:31;17.80;99.90
35894;DHT22;21994;48.204;16.516;2022-08-07T04:54:07;17.70;99.90
35894;DHT22;21994;48.204;16.516;2022-08-07T05:02:34;17.80;99.90
35894;DHT22;21994;48.204;16.516;2022-08-07T05:05:44;17.90;99.90
35894;DHT22;21994;48.204;16.516;2022-08-07T05:08:23;17.90;99.90
35894;DHT22;21994;48.204;16.516;2022-08-07T05:11:12;17.90;99.90
35894;DHT22;21994;48.204;16.516;2022-08-07T05:13:53;17.90;99.90
35894;DHT22;21994;48.204;16.516;2022-08-07T05:16:27;17.90;99.90
35894;DHT22;21994;48.204;16.516;2022-08-07T05:19:16;17.90;99.90
35894;DHT22;21994;48.204;16.516;2022-08-07T05:21:52;18.10;99.90
35894;DHT22;21994;48.204;16.516;2022-08-07T05:24:21;18.00;99.90
35894;DHT22;21994;48.204;16.516;2022-08-07T05:26:51;18.00;99.90
35894;DHT22;21994;48.204;16.516;2022-08-07T05:29:21;17.90;99.90
35894;DHT22;21994;48.204;16.516;2022-08-07T05:31:48;18.10;99.90
35894;DHT22;21994;48.204;16.516;2022-08-07T05:34:16;18.10;99.90
35894;DHT22;21994;48.204;16.516;2022-08-07T05:36:46;18.10;99.90
35894;DHT22;21994;48.204;16.516;2022-08-07T05:39:14;18.20;99.90
35894;DHT22;21994;48.204;16.516;2022-08-07T05:41:41;18.20;99.90
35894;DHT22;21994;48.204;16.516;2022-08-07T05:44:08;18.20;99.90
35894;DHT22;21994;48.204;16.516;2022-08-07T05:46:36;18.30;99.90
35894;DHT22;21994;48.204;16.516;2022-08-07T05:49:05;18.30;99.90
35894;DHT22;21994;48.204;16.516;2022-08-07T05:51:32;18.40;99.90
35894;DHT22;21994;48.204;16.516;2022-08-07T05:53:58;18.40;99.90
35894;DHT22;21994;48.204;16.516;2022-08-07T05:56:25;18.40;99.90
35894;DHT22;21994;48.204;16.516;2022-08-07T05:58:52;18.50;99.90
35894;DHT22;21994;48.204;16.516;2022-08-07T06:01:19;18.40;99.90
35894;DHT22;21994;48.204;16.516;2022-08-07T06:03:56;18.50;99.90
35894;DHT22;21994;48.204;16.516;2022-08-07T06:06:23;18.40;99.90
35894;DHT22;21994;48.204;16.516;2022-08-07T06:08:50;18.50;99.90
35894;DHT22;21994;48.204;16.516;2022-08-07T06:11:17;18.50;99.90
35894;DHT22;21994;48.204;16.516;2022-08-07T06:13:43;18.60;99.90
35894;DHT22;21994;48.204;16.516;2022-08-07T06:16:09;18.60;99.90
35894;DHT22;21994;48.204;16.516;2022-08-07T06:18:35;18.60;99.90
35894;DHT22;21994;48.204;16.516;2022-08-07T06:21:03;18.70;99.90
35894;DHT22;21994;48.204;16.516;2022-08-07T06:23:30;18.70;99.90
35894;DHT22;21994;48.204;16.516;2022-08-07T06:25:57;18.70;99.90
35894;DHT22;21994;48.204;16.516;2022-08-07T06:28:24;18.70;99.90
35894;DHT22;21994;48.204;16.516;2022-08-07T06:30:50;18.80;99.90
35894;DHT22;21994;48.204;16.516;2022-08-07T06:33:17;18.70;99.90
35894;DHT22;21994;48.204;16.516;2022-08-07T06:35:44;18.70;99.90
35894;DHT22;21994;48.204;16.516;2022-08-07T06:38:10;18.80;99.90
35894;DHT22;21994;48.204;16.516;2022-08-07T06:40:47;18.90;99.90
35894;DHT22;21994;48.204;16.516;2022-08-07T06:43:15;19.00;99.90
35894;DHT22;21994;48.204;16.516;2022-08-07T06:45:43;19.10;99.90
35894;DHT22;21994;48.204;16.516;2022-08-07T06:48:09;19.00;99.90
35894;DHT22;21994;48.204;16.516;2022-08-07T06:50:37;19.10;99.90
35894;DHT22;21994;48.204;16.516;2022-08-07T06:53:06;18.90;99.90
35894;DHT22;21994;48.204;16.516;2022-08-07T06:55:34;19.00;99.90
35894;DHT22;21994;48.204;16.516;2022-08-07T06:58:03;18.90;99.90
35894;DHT22;21994;48.204;16.516;2022-08-07T07:00:32;19.00;99.90
35894;DHT22;21994;48.204;16.516;2022-08-07T07:03:01;19.20;99.90
35894;DHT22;21994;48.204;16.516;2022-08-07T07:05:28;19.30;99.90
35894;DHT22;21994;48.204;16.516;2022-08-07T07:07:56;19.50;99.90
35894;DHT22;21994;48.204;16.516;2022-08-07T07:10:30;19.60;99.90
35894;DHT22;21994;48.204;16.516;2022-08-07T07:16:00;19.80;99.90
35894;DHT22;21994;48.204;16.516;2022-08-07T07:21:22;20.20;99.90
35894;DHT22;21994;48.204;16.516;2022-08-07T07:23:51;20.50;99.90
35894;DHT22;21994;48.204;16.516;2022-08-07T07:26:19;20.70;99.90
35894;DHT22;21994;48.204;16.516;2022-08-07T07:28:57;21.10;99.70
35894;DHT22;21994;48.204;16.516;2022-08-07T07:31:34;21.30;99.90
35894;DHT22;21994;48.204;16.516;2022-08-07T07:34:09;21.60;99.60
35894;DHT22;21994;48.204;16.516;2022-08-07T07:36:39;21.80;99.30
35894;DHT22;21994;48.204;16.516;2022-08-07T07:39:06;21.80;98.40
35894;DHT22;21994;48.204;16.516;2022-08-07T07:41:34;21.60;98.90
35894;DHT22;21994;48.204;16.516;2022-08-07T07:44:01;21.40;99.30
35894;DHT22;21994;48.204;16.516;2022-08-07T07:46:30;21.30;99.40
35894;DHT22;21994;48.204;16.516;2022-08-07T07:48:59;21.10;98.70
35894;DHT22;21994;48.204;16.516;2022-08-07T07:51:28;21.10;98.90
35894;DHT22;21994;48.204;16.516;2022-08-07T07:53:55;21.20;99.90
35894;DHT22;21994;48.204;16.516;2022-08-07T07:56:23;21.30;99.50
35894;DHT22;21994;48.204;16.516;2022-08-07T07:58:52;21.70;98.50
35894;DHT22;21994;48.204;16.516;2022-08-07T08:01:19;21.80;98.70
35894;DHT22;21994;48.204;16.516;2022-08-07T08:03:48;22.10;99.10
35894;DHT22;21994;48.204;16.516;2022-08-07T08:06:16;22.30;98.60
35894;DHT22;21994;48.204;16.516;2022-08-07T08:08:44;22.20;98.70
35894;DHT22;21994;48.204;16.516;2022-08-07T08:11:10;22.50;97.80
35894;DHT22;21994;48.204;16.516;2022-08-07T08:13:43;22.80;98.10
35894;DHT22;21994;48.204;16.516;2022-08-07T08:16:13;22.60;96.80
35894;DHT22;21994;48.204;16.516;2022-08-07T08:18:44;22.80;97.70
35894;DHT22;21994;48.204;16.516;2022-08-07T08:21:13;22.80;96.70
35894;DHT22;21994;48.204;16.516;2022-08-07T08:24:00;23.00;97.40
35894;DHT22;21994;48.204;16.516;2022-08-07T08:26:45;23.40;97.10
35894;DHT22;21994;48.204;16.516;2022-08-07T08:29:31;23.30;96.80
35894;DHT22;21994;48.204;16.516;2022-08-07T08:32:23;23.00;97.10
35894;DHT22;21994;48.204;16.516;2022-08-07T08:34:50;22.90;96.90
35894;DHT22;21994;48.204;16.516;2022-08-07T08:37:18;22.90;97.60
35894;DHT22;21994;48.204;16.516;2022-08-07T08:39:46;23.10;97.00
35894;DHT22;21994;48.204;16.516;2022-08-07T08:42:46;23.00;96.70
35894;DHT22;21994;48.204;16.516;2022-08-07T08:45:28;23.00;97.40
35894;DHT22;21994;48.204;16.516;2022-08-07T08:48:54;22.80;96.60
35894;DHT22;21994;48.204;16.516;2022-08-07T08:51:43;22.40;98.00
35894;DHT22;21994;48.204;16.516;2022-08-07T08:54:31;22.60;98.70
35894;DHT22;21994;48.204;16.516;2022-08-07T08:57:06;22.80;98.00
35894;DHT22;21994;48.204;16.516;2022-08-07T08:59:46;22.70;97.20
35894;DHT22;21994;48.204;16.516;2022-08-07T09:02:43;22.60;97.90
35894;DHT22;21994;48.204;16.516;2022-08-07T09:14:34;22.40;97.70
35894;DHT22;21994;48.204;16.516;2022-08-07T09:17:15;22.50;98.60
35894;DHT22;21994;48.204;16.516;2022-08-07T09:20:31;22.70;97.90
35894;DHT22;21994;48.204;16.516;2022-08-07T09:26:32;22.60;96.90
35894;DHT22;21994;48.204;16.516;2022-08-07T09:32:31;22.50;97.90
35894;DHT22;21994;48.204;16.516;2022-08-07T09:35:46;22.50;97.20
35894;DHT22;21994;48.204;16.516;2022-08-07T09:41:28;22.50;98.10
35894;DHT22;21994;48.204;16.516;2022-08-07T09:47:14;23.00;97.50
35894;DHT22;21994;48.204;16.516;2022-08-07T09:52:55;24.20;96.00
35894;DHT22;21994;48.204;16.516;2022-08-07T10:17:11;26.20;92.90
35894;DHT22;21994;48.204;16.516;2022-08-07T10:46:24;27.80;90.30
35894;DHT22;21994;48.204;16.516;2022-08-07T10:49:21;27.30;91.60
35894;DHT22;21994;48.204;16.516;2022-08-07T10:55:45;26.30;91.60
35894;DHT22;21994;48.204;16.516;2022-08-07T11:01:42;26.00;93.30
35894;DHT22;21994;48.204;16.516;2022-08-07T11:07:29;25.60;93.10
35894;DHT22;21994;48.204;16.516;2022-08-07T11:10:36;25.60;93.50
35894;DHT22;21994;48.204;16.516;2022-08-07T11:13:23;25.40;92.90
35894;DHT22;21994;48.204;16.516;2022-08-07T11:15:56;25.10;93.30
35894;DHT22;21994;48.204;16.516;2022-08-07T11:18:43;25.40;93.60
35894;DHT22;21994;48.204;16.516;2022-08-07T11:24:32;25.30;93.10
35894;DHT22;21994;48.204;16.516;2022-08-07T11:27:39;25.30;92.80
35894;DHT22;21994;48.204;16.516;2022-08-07T11:30:04;25.20;92.70
35894;DHT22;21994;48.204;16.516;2022-08-07T11:32:53;25.20;92.20
35894;DHT22;21994;48.204;16.516;2022-08-07T11:35:29;25.00;92.70
35894;DHT22;21994;48.204;16.516;2022-08-07T11:38:38;24.90;93.10
35894;DHT22;21994;48.204;16.516;2022-08-07T11:41:31;25.00;92.50
35894;DHT22;21994;48.204;16.516;2022-08-07T11:47:21;25.00;92.50
35894;DHT22;21994;48.204;16.516;2022-08-07T11:50:20;25.30;92.90
35894;DHT22;21994;48.204;16.516;2022-08-07T11:53:17;25.10;93.00
35894;DHT22;21994;48.204;16.516;2022-08-07T12:07:52;24.90;92.60
35894;DHT22;21994;48.204;16.516;2022-08-07T12:10:36;25.00;92.20
35894;DHT22;21994;48.204;16.516;2022-08-07T12:13:28;24.90;92.30
35894;DHT22;21994;48.204;16.516;2022-08-07T12:16:15;24.90;92.60
35894;DHT22;21994;48.204;16.516;2022-08-07T12:27:36;24.60;93.40
35894;DHT22;21994;48.204;16.516;2022-08-07T12:30:06;24.50;93.60
35894;DHT22;21994;48.204;16.516;2022-08-07T12:32:41;24.60;92.90
35894;DHT22;21994;48.204;16.516;2022-08-07T12:35:11;24.70;93.30
35894;DHT22;21994;48.204;16.516;2022-08-07T12:37:40;24.60;93.60
35894;DHT22;21994;48.204;16.516;2022-08-07T12:40:09;24.80;94.50
35894;DHT22;21994;48.204;16.516;2022-08-07T12:42:36;24.70;92.70
35894;DHT22;21994;48.204;16.516;2022-08-07T12:45:08;24.80;92.60
35894;DHT22;21994;48.204;16.516;2022-08-07T12:48:05;24.70;93.30
35894;DHT22;21994;48.204;16.516;2022-08-07T12:51:08;24.70;94.20
35894;DHT22;21994;48.204;16.516;2022-08-07T12:53:57;24.80;93.70
35894;DHT22;21994;48.204;16.516;2022-08-07T12:56:40;24.70;93.80
35894;DHT22;21994;48.204;16.516;2022-08-07T12:59:10;24.80;93.20
35894;DHT22;21994;48.204;16.516;2022-08-07T13:16:54;25.20;93.40
35894;DHT22;21994;48.204;16.516;2022-08-07T13:19:53;25.40;93.90
35894;DHT22;21994;48.204;16.516;2022-08-07T13:22:43;25.60;92.70
35894;DHT22;21994;48.204;16.516;2022-08-07T13:25:35;25.60;91.90
35894;DHT22;21994;48.204;16.516;2022-08-07T13:28:12;25.60;91.40
35894;DHT22;21994;48.204;16.516;2022-08-07T13:30:51;25.90;92.80
35894;DHT22;21994;48.204;16.516;2022-08-07T13:33:37;26.50;94.40
35894;DHT22;21994;48.204;16.516;2022-08-07T13:36:33;26.80;93.30
35894;DHT22;21994;48.204;16.516;2022-08-07T13:41:50;26.90;91.80
35894;DHT22;21994;48.204;16.516;2022-08-07T13:44:30;27.00;92.60
35894;DHT22;21994;48.204;16.516;2022-08-07T13:46:58;27.10;91.20
35894;DHT22;21994;48.204;16.516;2022-08-07T13:49:27;27.10;91.70
35894;DHT22;21994;48.204;16.516;2022-08-07T13:52:03;27.00;91.40
35894;DHT22;21994;48.204;16.516;2022-08-07T13:54:30;27.10;90.60
35894;DHT22;21994;48.204;16.516;2022-08-07T13:56:58;27.30;90.50
35894;DHT22;21994;48.204;16.516;2022-08-07T13:59:30;27.60;90.10
35894;DHT22;21994;48.204;16.516;2022-08-07T14:02:04;27.50;90.30
35894;DHT22;21994;48.204;16.516;2022-08-07T14:04:53;27.90;92.70
35894;DHT22;21994;48.204;16.516;2022-08-07T14:07:28;27.90;90.30
35894;DHT22;21994;48.204;16.516;2022-08-07T14:09:57;27.70;90.70
35894;DHT22;21994;48.204;16.516;2022-08-07T14:12:39;27.40;90.00
35894;DHT22;21994;48.204;16.516;2022-08-07T14:21:01;27.20;90.70
35894;DHT22;21994;48.204;16.516;2022-08-07T14:23:32;27.00;90.50
35894;DHT22;21994;48.204;16.516;2022-08-07T14:26:04;27.30;91.30
35894;DHT22;21994;48.204;16.516;2022-08-07T14:28:35;27.50;92.10
35894;DHT22;21994;48.204;16.516;2022-08-07T14:31:05;27.80;91.80
35894;DHT22;21994;48.204;16.516;2022-08-07T14:33:33;28.00;90.30
35894;DHT22;21994;48.204;16.516;2022-08-07T14:36:00;28.20;88.70
35894;DHT22;21994;48.204;16.516;2022-08-07T14:38:28;28.30;90.20
35894;DHT22;21994;48.204;16.516;2022-08-07T14:41:05;28.10;90.70
35894;DHT22;21994;48.204;16.516;2022-08-07T14:43:33;28.20;90.70
35894;DHT22;21994;48.204;16.516;2022-08-07T14:46:05;28.10;87.10
35894;DHT22;21994;48.204;16.516;2022-08-07T14:48:36;28.00;86.90
35894;DHT22;21994;48.204;16.516;2022-08-07T14:51:05;28.00;86.50
35894;DHT22;21994;48.204;16.516;2022-08-07T14:53:35;28.10;88.20
35894;DHT22;21994;48.204;16.516;2022-08-07T14:56:05;28.40;86.30
35894;DHT22;21994;48.204;16.516;2022-08-07T14:58:35;28.60;86.80
35894;DHT22;21994;48.204;16.516;2022-08-07T15:01:05;28.40;87.00
35894;DHT22;21994;48.204;16.516;2022-08-07T15:03:32;28.60;87.70
35894;DHT22;21994;48.204;16.516;2022-08-07T15:05:59;28.10;85.80
35894;DHT22;21994;48.204;16.516;2022-08-07T15:08:36;27.90;90.50
35894;DHT22;21994;48.204;16.516;2022-08-07T15:11:10;28.10;87.50
35894;DHT22;21994;48.204;16.516;2022-08-07T15:16:12;28.10;87.10
35894;DHT22;21994;48.204;16.516;2022-08-07T15:18:44;28.00;86.80
35894;DHT22;21994;48.204;16.516;2022-08-07T15:21:30;27.90;87.10
35894;DHT22;21994;48.204;16.516;2022-08-07T15:24:00;27.50;88.60
35894;DHT22;21994;48.204;16.516;2022-08-07T15:26:41;26.80;88.50
35894;DHT22;21994;48.204;16.516;2022-08-07T15:29:12;26.40;88.10
35894;DHT22;21994;48.204;16.516;2022-08-07T15:31:41;26.10;88.30
35894;DHT22;21994;48.204;16.516;2022-08-07T15:34:09;25.80;90.40
35894;DHT22;21994;48.204;16.516;2022-08-07T15:36:35;25.70;90.50
35894;DHT22;21994;48.204;16.516;2022-08-07T15:39:04;25.80;90.00
35894;DHT22;21994;48.204;16.516;2022-08-07T15:41:37;25.80;90.10
35894;DHT22;21994;48.204;16.516;2022-08-07T15:44:20;25.80;90.40
35894;DHT22;21994;48.204;16.516;2022-08-07T15:46:55;25.60;90.30
35894;DHT22;21994;48.204;16.516;2022-08-07T15:49:28;25.40;90.30
35894;DHT22;21994;48.204;16.516;2022-08-07T15:51:55;25.40;90.70
35894;DHT22;21994;48.204;16.516;2022-08-07T15:54:23;25.40;90.10
35894;DHT22;21994;48.204;16.516;2022-08-07T15:56:51;25.20;90.90
35894;DHT22;21994;48.204;16.516;2022-08-07T15:59:17;25.00;90.30
35894;DHT22;21994;48.204;16.516;2022-08-07T16:01:50;24.80;90.80
35894;DHT22;21994;48.204;16.516;2022-08-07T16:04:19;24.80;90.90
35894;DHT22;21994;48.204;16.516;2022-08-07T16:06:51;24.80;90.90
35894;DHT22;21994;48.204;16.516;2022-08-07T16:09:29;24.90;90.90
35894;DHT22;21994;48.204;16.516;2022-08-07T16:21:02;24.70;91.60
35894;DHT22;21994;48.204;16.516;2022-08-07T16:30:14;24.50;92.00
35894;DHT22;21994;48.204;16.516;2022-08-07T16:32:52;24.40;91.80
35894;DHT22;21994;48.204;16.516;2022-08-07T16:35:46;24.30;92.30
35894;DHT22;21994;48.204;16.516;2022-08-07T16:41:38;24.20;91.50
35894;DHT22;21994;48.204;16.516;2022-08-07T16:44:47;24.00;91.80
35894;DHT22;21994;48.204;16.516;2022-08-07T17:12:18;23.40;92.30
35894;DHT22;21994;48.204;16.516;2022-08-07T17:15:17;23.40;93.20
35894;DHT22;21994;48.204;16.516;2022-08-07T17:23:36;23.20;93.00
35894;DHT22;21994;48.204;16.516;2022-08-07T17:32:24;23.10;93.40
35894;DHT22;21994;48.204;16.516;2022-08-07T17:34:54;23.00;93.00
35894;DHT22;21994;48.204;16.516;2022-08-07T17:37:50;23.00;93.60
35894;DHT22;21994;48.204;16.516;2022-08-07T17:43:22;23.10;94.20
35894;DHT22;21994;48.204;16.516;2022-08-07T17:46:16;22.90;95.30
35894;DHT22;21994;48.204;16.516;2022-08-07T17:49:02;22.60;97.40
35894;DHT22;21994;48.204;16.516;2022-08-07T17:54:47;22.40;98.90
35894;DHT22;21994;48.204;16.516;2022-08-07T17:57:48;22.40;98.50
35894;DHT22;21994;48.204;16.516;2022-08-07T18:00:24;22.10;99.50
35894;DHT22;21994;48.204;16.516;2022-08-07T18:05:30;21.90;99.90
35894;DHT22;21994;48.204;16.516;2022-08-07T18:08:33;21.80;99.90
35894;DHT22;21994;48.204;16.516;2022-08-07T18:13:55;21.50;99.90
35894;DHT22;21994;48.204;16.516;2022-08-07T18:16:53;21.30;99.90
35894;DHT22;21994;48.204;16.516;2022-08-07T18:19:28;21.20;99.90
35894;DHT22;21994;48.204;16.516;2022-08-07T18:22:12;21.20;99.90
35894;DHT22;21994;48.204;16.516;2022-08-07T18:24:52;20.90;99.90
35894;DHT22;21994;48.204;16.516;2022-08-07T18:30:48;20.40;99.90
35894;DHT22;21994;48.204;16.516;2022-08-07T18:37:11;20.10;99.90
35894;DHT22;21994;48.204;16.516;2022-08-07T18:43:11;20.10;99.90
35894;DHT22;21994;48.204;16.516;2022-08-07T18:45:58;20.10;99.90
35894;DHT22;21994;48.204;16.516;2022-08-07T18:48:50;20.00;99.90
35894;DHT22;21994;48.204;16.516;2022-08-07T18:51:41;20.00;99.90
35894;DHT22;21994;48.204;16.516;2022-08-07T19:00:47;19.80;99.90
35894;DHT22;21994;48.204;16.516;2022-08-07T19:03:28;19.70;99.90
35894;DHT22;21994;48.204;16.516;2022-08-07T19:11:43;19.60;99.90
35894;DHT22;21994;48.204;16.516;2022-08-07T19:14:17;19.60;99.90
35894;DHT22;21994;48.204;16.516;2022-08-07T19:16:54;19.60;99.90
35894;DHT22;21994;48.204;16.516;2022-08-07T19:19:40;19.60;99.90
35894;DHT22;21994;48.204;16.516;2022-08-07T19:22:27;19.40;99.90
35894;DHT22;21994;48.204;16.516;2022-08-07T19:25:02;19.40;99.90
35894;DHT22;21994;48.204;16.516;2022-08-07T19:27:31;19.30;99.90
35894;DHT22;21994;48.204;16.516;2022-08-07T19:30:02;19.30;99.90
35894;DHT22;21994;48.204;16.516;2022-08-07T19:32:38;19.20;99.90
35894;DHT22;21994;48.204;16.516;2022-08-07T19:35:10;19.10;99.90
35894;DHT22;21994;48.204;16.516;2022-08-07T19:37:40;19.00;99.90
35894;DHT22;21994;48.204;16.516;2022-08-07T19:40:09;19.00;99.90
35894;DHT22;21994;48.204;16.516;2022-08-07T19:42:40;18.90;99.90
35894;DHT22;21994;48.204;16.516;2022-08-07T19:45:27;18.80;99.90
35894;DHT22;21994;48.204;16.516;2022-08-07T19:47:55;18.80;99.90
35894;DHT22;21994;48.204;16.516;2022-08-07T19:50:23;18.80;99.90
35894;DHT22;21994;48.204;16.516;2022-08-07T19:52:50;18.70;99.90
35894;DHT22;21994;48.204;16.516;2022-08-07T19:55:19;18.70;99.90
35894;DHT22;21994;48.204;16.516;2022-08-07T19:57:51;18.60;99.90